createdAt,value
2022-12-25T00:03:38.683Z,0
2022-12-25T00:08:38.623Z,0
2022-12-25T00:13:38.656Z,0
2022-12-25T00:18:38.616Z,0
2022-12-25T00:23:38.595Z,0
2022-12-25T00:28:38.629Z,0
2022-12-25T00:33:38.635Z,0
2022-12-25T00:38:38.632Z,0
2022-12-25T00:43:38.634Z,0
2022-12-25T00:48:38.600Z,0
2022-12-25T00:53:38.614Z,0
2022-12-25T00:58:38.589Z,0
2022-12-25T01:03:38.626Z,0
2022-12-25T01:08:38.638Z,0
2022-12-25T01:13:38.608Z,0
2022-12-25T01:18:38.581Z,0
2022-12-25T01:23:38.615Z,0
2022-12-25T01:28:38.592Z,0
2022-12-25T01:33:38.592Z,0
2022-12-25T01:38:38.606Z,0
2022-12-25T01:48:38.593Z,0
2022-12-25T01:53:38.627Z,0
2022-12-25T01:58:38.589Z,0
2022-12-25T02:03:38.579Z,0
2022-12-25T02:08:39.423Z,0
2022-12-25T02:13:39.472Z,0
2022-12-25T02:18:39.435Z,0
2022-12-25T02:23:39.424Z,0
2022-12-25T02:28:42.066Z,0
2022-12-25T02:33:39.460Z,0
2022-12-25T02:38:39.433Z,0
2022-12-25T02:43:39.430Z,0
2022-12-25T02:48:39.421Z,0
2022-12-25T02:53:39.428Z,0
2022-12-25T02:58:39.410Z,0
2022-12-25T03:03:39.441Z,0
2022-12-25T03:08:39.422Z,0
2022-12-25T03:13:39.452Z,0
2022-12-25T03:18:39.414Z,0
2022-12-25T03:23:39.410Z,0
2022-12-25T03:28:39.426Z,0
2022-12-25T03:33:46.671Z,0
2022-12-25T03:38:39.421Z,0
2022-12-25T03:43:39.410Z,0
2022-12-25T03:48:39.394Z,0
2022-12-25T03:53:39.407Z,0
2022-12-25T03:58:39.406Z,0
2022-12-25T04:03:39.508Z,0
2022-12-25T04:08:39.376Z,0
2022-12-25T04:13:39.433Z,0
2022-12-25T04:18:39.413Z,0
2022-12-25T04:23:40.297Z,0
2022-12-25T04:28:40.300Z,0
2022-12-25T04:33:40.321Z,0
2022-12-25T04:38:40.258Z,0
2022-12-25T04:43:40.314Z,0
2022-12-25T04:48:40.263Z,0
2022-12-25T04:53:40.299Z,0
2022-12-25T04:58:40.286Z,0
2022-12-25T05:03:40.369Z,0
2022-12-25T05:08:41.110Z,0
2022-12-25T05:13:41.175Z,0
2022-12-25T05:18:41.113Z,0
2022-12-25T05:23:41.084Z,0
2022-12-25T05:28:41.076Z,0
2022-12-25T05:33:41.121Z,0
2022-12-25T05:38:42.480Z,0
2022-12-25T05:43:42.490Z,0
2022-12-25T05:48:42.497Z,0
2022-12-25T05:53:42.531Z,0
2022-12-25T05:58:42.471Z,0
2022-12-25T06:03:42.621Z,0
2022-12-25T06:08:42.457Z,0
2022-12-25T06:13:42.478Z,0
2022-12-25T06:18:42.708Z,0
2022-12-25T06:23:42.792Z,0
2022-12-25T06:28:42.715Z,0
2022-12-25T06:33:47.201Z,0
2022-12-25T06:38:47.187Z,0
2022-12-25T06:43:47.198Z,0
2022-12-25T06:48:47.155Z,0
2022-12-25T06:53:47.182Z,0
2022-12-25T06:58:47.187Z,0
2022-12-25T07:03:47.171Z,0
2022-12-25T07:08:47.173Z,0
2022-12-25T07:13:47.170Z,0
2022-12-25T07:18:47.149Z,0
2022-12-25T07:23:47.178Z,0
2022-12-25T07:28:47.202Z,0
2022-12-25T07:33:47.199Z,0
2022-12-25T07:38:47.157Z,0
2022-12-25T07:43:47.179Z,2
2022-12-25T07:48:47.152Z,4
2022-12-25T07:53:47.186Z,3
2022-12-25T07:58:47.133Z,9
2022-12-25T08:03:47.301Z,15
2022-12-25T08:08:47.276Z,21
2022-12-25T08:13:47.188Z,16
2022-12-25T08:18:47.141Z,17
2022-12-25T08:23:47.133Z,17
2022-12-25T08:28:47.125Z,15
2022-12-25T08:33:47.141Z,16
2022-12-25T08:38:47.166Z,13
2022-12-25T08:43:47.134Z,16
2022-12-25T08:48:47.179Z,20
2022-12-25T08:53:47.174Z,41
2022-12-25T08:58:47.161Z,33
2022-12-25T09:03:47.166Z,38
2022-12-25T09:08:49.395Z,46
2022-12-25T09:13:47.213Z,34
2022-12-25T09:18:47.152Z,24
2022-12-25T09:23:47.121Z,20
2022-12-25T09:28:51.682Z,22
2022-12-25T09:33:47.399Z,25
2022-12-25T09:38:47.405Z,28
2022-12-25T09:43:47.386Z,25
2022-12-25T09:48:47.648Z,24
2022-12-25T09:53:47.646Z,21
2022-12-25T09:58:47.654Z,23
2022-12-25T10:03:49.349Z,27
2022-12-25T10:08:49.203Z,25
2022-12-25T10:13:49.478Z,35
2022-12-25T10:18:50.412Z,31
2022-12-25T10:23:50.406Z,27
2022-12-25T10:28:50.382Z,23
2022-12-25T10:33:50.394Z,27
2022-12-25T10:38:50.656Z,25
2022-12-25T10:43:50.900Z,22
2022-12-25T10:48:51.125Z,18
2022-12-25T10:53:51.184Z,18
2022-12-25T10:58:51.141Z,17
2022-12-25T11:03:51.214Z,12
2022-12-25T11:08:51.142Z,16
2022-12-25T11:13:51.171Z,17
2022-12-25T11:18:51.117Z,20
2022-12-25T11:23:51.108Z,19
2022-12-25T11:28:51.131Z,16
2022-12-25T11:33:51.167Z,13
2022-12-25T11:38:51.691Z,16
2022-12-25T11:43:51.365Z,11
2022-12-25T11:48:51.392Z,10
2022-12-25T11:53:51.976Z,15
2022-12-25T11:58:51.929Z,11
2022-12-25T12:03:51.963Z,11
2022-12-25T12:08:51.924Z,15
2022-12-25T12:13:52.619Z,12
2022-12-25T12:18:52.581Z,13
2022-12-25T12:23:52.584Z,15
2022-12-25T12:28:53.304Z,15
2022-12-25T12:33:53.327Z,13
2022-12-25T12:38:53.295Z,16
2022-12-25T12:43:53.318Z,14
2022-12-25T12:48:53.286Z,13
2022-12-25T12:53:53.336Z,13
2022-12-25T12:58:53.308Z,11
2022-12-25T13:03:53.318Z,11
2022-12-25T13:08:53.277Z,12
2022-12-25T13:13:53.304Z,9
2022-12-25T13:18:53.302Z,5
2022-12-25T13:23:53.292Z,9
2022-12-25T13:28:53.308Z,15
2022-12-25T13:33:54.074Z,6
2022-12-25T13:38:54.019Z,5
2022-12-25T13:43:54.042Z,5
2022-12-25T13:48:54.034Z,4
2022-12-25T13:53:54.059Z,2
2022-12-25T13:58:54.026Z,2
2022-12-25T14:03:54.013Z,0
2022-12-25T14:08:54.043Z,1
2022-12-25T14:13:54.053Z,0
2022-12-25T14:18:54.021Z,0
2022-12-25T14:23:54.007Z,0
2022-12-25T14:28:54.023Z,0
2022-12-25T14:33:54.044Z,0
2022-12-25T14:38:54.003Z,0
2022-12-25T14:43:54.027Z,0
2022-12-25T14:48:54.025Z,0
2022-12-25T14:53:54.038Z,0
2022-12-25T14:58:54.033Z,0
2022-12-25T15:03:54.053Z,0
2022-12-25T15:08:53.994Z,0
2022-12-25T15:13:54.026Z,0
2022-12-25T15:18:54.040Z,0
2022-12-25T15:23:54.024Z,0
2022-12-25T15:28:54.023Z,0
2022-12-25T15:33:54.054Z,0
2022-12-25T15:38:54.037Z,0
2022-12-25T15:43:53.994Z,0
2022-12-25T15:48:53.989Z,0
2022-12-25T15:53:54.039Z,0
2022-12-25T15:58:54.276Z,0
2022-12-25T16:03:54.397Z,0
2022-12-25T16:08:54.254Z,0
2022-12-25T16:13:54.287Z,0
2022-12-25T16:18:54.748Z,0
2022-12-25T16:23:54.493Z,0
2022-12-25T16:28:54.507Z,0
2022-12-25T16:33:54.767Z,0
2022-12-25T16:38:54.732Z,0
2022-12-25T16:43:54.754Z,0
2022-12-25T16:48:55.319Z,0
2022-12-25T16:53:55.037Z,0
2022-12-25T16:58:55.017Z,0
2022-12-25T17:03:55.076Z,0
2022-12-25T17:08:55.969Z,0
2022-12-25T17:13:56.005Z,0
2022-12-25T17:18:56.046Z,0
2022-12-25T17:24:02.219Z,0
2022-12-25T17:28:57.073Z,0
2022-12-25T17:33:57.109Z,0
2022-12-25T17:38:57.089Z,0
2022-12-25T17:43:57.087Z,0
2022-12-25T17:48:57.070Z,0
2022-12-25T17:53:57.080Z,0
2022-12-25T17:58:57.054Z,0
2022-12-25T18:03:57.057Z,0
2022-12-25T18:08:57.050Z,0
2022-12-25T18:13:57.065Z,0
2022-12-25T18:18:57.051Z,0
2022-12-25T18:23:57.034Z,0
2022-12-25T18:28:57.042Z,0
2022-12-25T18:33:57.065Z,0
2022-12-25T18:38:57.031Z,0
2022-12-25T18:43:57.013Z,0
2022-12-25T18:48:57.111Z,0
2022-12-25T18:53:57.069Z,0
2022-12-25T18:58:56.993Z,0
2022-12-25T19:04:04.019Z,0
2022-12-25T19:08:57.034Z,0
2022-12-25T19:13:57.064Z,0
2022-12-25T19:18:56.999Z,0
2022-12-25T19:23:57.021Z,0
2022-12-25T19:28:57.034Z,0
2022-12-25T19:33:57.026Z,0
2022-12-25T19:38:57.017Z,0
2022-12-25T19:43:56.981Z,0
2022-12-25T19:48:56.992Z,0
2022-12-25T19:53:57.011Z,0
2022-12-25T19:58:56.990Z,0
2022-12-25T20:03:56.999Z,0
2022-12-25T20:08:56.986Z,0
2022-12-25T20:13:57.013Z,0
2022-12-25T20:18:56.983Z,0
2022-12-25T20:23:56.988Z,0
2022-12-25T20:28:56.983Z,0
2022-12-25T20:33:56.997Z,0
2022-12-25T20:38:56.961Z,0
2022-12-25T20:43:56.986Z,0
2022-12-25T20:48:56.968Z,0
2022-12-25T20:53:57.003Z,0
2022-12-25T20:58:56.974Z,0
2022-12-25T21:03:57.099Z,0
2022-12-25T21:08:56.983Z,0
2022-12-25T21:13:56.997Z,0
2022-12-25T21:18:56.970Z,0
2022-12-25T21:23:56.939Z,0
2022-12-25T21:28:56.969Z,0
2022-12-25T21:33:56.970Z,0
2022-12-25T21:38:56.936Z,0
2022-12-25T21:43:56.941Z,0
2022-12-25T21:48:56.943Z,0
2022-12-25T21:53:56.954Z,0
2022-12-25T21:58:56.932Z,0
2022-12-25T22:03:56.932Z,0
2022-12-25T22:08:56.937Z,0
2022-12-25T22:13:56.956Z,0
2022-12-25T22:18:56.904Z,0
2022-12-25T22:23:56.924Z,0
2022-12-25T22:28:56.940Z,0
2022-12-25T22:33:56.953Z,0
2022-12-25T22:38:56.941Z,0
2022-12-25T22:44:18.689Z,0
2022-12-25T22:48:56.930Z,0
2022-12-25T22:54:01.747Z,0
2022-12-25T22:58:56.947Z,0
2022-12-25T23:03:56.954Z,0
2022-12-25T23:08:56.903Z,0
2022-12-25T23:13:56.950Z,0
2022-12-25T23:18:56.930Z,0
2022-12-25T23:23:56.900Z,0
2022-12-25T23:28:56.879Z,0
2022-12-25T23:33:56.902Z,0
2022-12-25T23:38:59.278Z,0
2022-12-25T23:43:56.866Z,0
2022-12-25T23:48:56.883Z,0
2022-12-25T23:53:56.886Z,0
2022-12-25T23:58:56.925Z,0
